Time;durP1;ratioP1;P1;durP2;ratioP2;P2;SDS_P1;SDS_P2;PMS_P1;PMS_P2;Temp;Humidity;BMP_temperature;BMP_pressure;BME280_temperature;BME280_humidity;BME280_pressure;Samples;Min_cycle;Max_cycle;Signal;HPM_P1;HPM_P2
2022/10/16 00:04:02;;;;;;;;;;;13.20;99.90;;;12.08;100.00;95741.69;10538489;28;2650;-75
2022/10/16 00:09:04;;;;;;;;;;;13.20;99.90;;;12.02;100.00;95737.44;10544331;28;2163;-73
2022/10/16 00:14:08;;;;;;;;;;;13.20;99.90;;;12.08;100.00;95741.69;10543810;28;2007;-71
2022/10/16 00:19:12;;;;;;;;;;;13.20;99.90;;;12.04;100.00;95746.06;10540684;28;2006;-71
2022/10/16 00:24:16;;;;;;;;;;;13.20;99.90;;;12.03;100.00;95737.19;10525475;28;2109;-73
2022/10/16 00:29:19;;;;;;;;;;;13.10;99.90;;;11.90;100.00;95724.38;10540611;28;2556;-71
2022/10/16 00:34:26;;;;;;;;;;;13.10;99.90;;;11.86;100.00;95742.97;10550690;28;2030;-74
2022/10/16 00:39:29;;;;;;;;;;;13.10;99.90;;;11.96;100.00;95736.69;10551705;28;2060;-72
2022/10/16 00:44:32;;;;;;;;;;;13.00;99.90;;;11.99;100.00;95733.44;10552643;28;2051;-71
2022/10/16 00:49:36;;;;;;;;;;;13.10;99.90;;;12.04;100.00;95737.97;10545651;28;2044;-72
2022/10/16 00:54:39;;;;;;;;;;;13.10;99.90;;;11.99;100.00;95743.41;10551681;28;2598;-70
2022/10/16 00:59:42;;;;;;;;;;;13.10;99.90;;;12.01;100.00;95736.63;10547562;28;2146;-76
2022/10/16 01:04:46;;;;;;;;;;;14.00;99.90;;;12.00;100.00;95745.81;10545497;28;2052;-71
2022/10/16 01:09:49;;;;;;;;;;;13.10;99.90;;;12.02;100.00;95750.91;10549550;28;2679;-73
2022/10/16 01:14:52;;;;;;;;;;;13.10;99.90;;;11.99;100.00;95764.97;10549888;28;2040;-72
2022/10/16 01:20:04;;;;;;;;;;;13.10;99.90;;;11.90;100.00;95768.25;10546638;28;2565;-72
2022/10/16 01:25:07;;;;;;;;;;;13.00;99.90;;;11.82;100.00;95765.34;10552438;28;2664;-71
2022/10/16 01:30:13;;;;;;;;;;;13.00;99.90;;;11.80;100.00;95760.22;10558392;28;2071;-72
2022/10/16 01:35:17;;;;;;;;;;;12.90;99.90;;;11.81;100.00;95769.13;10557448;28;2023;-71
2022/10/16 01:40:23;;;;;;;;;;;12.90;99.90;;;11.76;100.00;95753.78;10543720;28;2071;-72
2022/10/16 01:45:27;;;;;;;;;;;12.90;99.90;;;11.94;100.00;95751.53;10559427;28;2849;-72
2022/10/16 01:50:30;;;;;;;;;;;12.90;99.90;;;12.00;100.00;95747.69;10552240;28;2178;-71
2022/10/16 01:55:33;;;;;;;;;;;13.00;99.90;;;12.02;100.00;95742.81;10547062;28;2114;-72
2022/10/16 02:00:36;;;;;;;;;;;13.10;99.90;;;12.08;100.00;95749.78;10546033;28;2175;-72
2022/10/16 02:05:40;;;;;;;;;;;13.10;99.90;;;12.03;100.00;95739.06;10554470;28;3054;-71
2022/10/16 02:10:44;;;;;;;;;;;13.10;99.90;;;11.92;100.00;95745.63;10548039;28;2042;-70
2022/10/16 02:15:47;;;;;;;;;;;13.00;99.90;;;11.86;100.00;95742.97;10554116;28;2614;-70
2022/10/16 02:20:50;;;;;;;;;;;13.00;99.90;;;11.93;100.00;95747.22;10546128;28;2598;-71
2022/10/16 02:25:54;;;;;;;;;;;13.00;99.90;;;11.85;100.00;95744.06;10542996;28;2598;-74
2022/10/16 02:30:56;;;;;;;;;;;12.90;99.90;;;11.92;100.00;95751.81;10551804;28;2677;-71
2022/10/16 02:35:59;;;;;;;;;;;13.00;99.90;;;11.94;100.00;95746.94;10556967;28;2689;-71
2022/10/16 02:41:04;;;;;;;;;;;13.00;99.90;;;11.86;100.00;95748.34;10546306;28;2723;-71
2022/10/16 02:46:07;;;;;;;;;;;13.00;99.90;;;11.80;100.00;95757.53;10548187;28;2029;-71
2022/10/16 02:51:10;;;;;;;;;;;12.90;99.90;;;11.82;100.00;95758.06;10546522;28;2601;-70
2022/10/16 02:56:13;;;;;;;;;;;12.90;99.90;;;11.83;100.00;95765.09;10542548;28;2603;-70
2022/10/16 03:01:17;;;;;;;;;;;12.90;99.90;;;11.76;100.00;95769.13;10551197;28;2606;-70
2022/10/16 03:06:20;;;;;;;;;;;12.90;99.90;;;11.72;100.00;95760.84;10548506;28;2541;-71
2022/10/16 03:11:23;;;;;;;;;;;12.80;99.90;;;11.64;100.00;95753.31;10546566;28;2094;-72
2022/10/16 03:16:27;;;;;;;;;;;12.80;99.90;;;11.58;100.00;95759.88;10541439;28;2615;-70
2022/10/16 03:21:30;;;;;;;;;;;12.70;99.90;;;11.62;100.00;95747.44;10548828;28;2588;-71
2022/10/16 03:26:33;;;;;;;;;;;12.70;99.90;;;11.69;100.00;95753.28;10548567;28;2697;-71
2022/10/16 03:31:36;;;;;;;;;;;12.70;99.90;;;11.83;100.00;95754.31;10542530;28;2160;-71
2022/10/16 03:36:40;;;;;;;;;;;12.90;99.90;;;11.94;100.00;95759.59;10538246;28;2698;-72
2022/10/16 03:41:43;;;;;;;;;;;12.90;99.90;;;12.04;100.00;95765.72;10549021;28;2141;-71
2022/10/16 03:46:47;;;;;;;;;;;13.00;99.90;;;12.13;100.00;95768.59;10553719;28;2570;-71
2022/10/16 03:51:49;;;;;;;;;;;13.10;99.90;;;12.24;100.00;95778.19;10547561;28;2567;-71
2022/10/16 03:56:53;;;;;;;;;;;13.20;99.90;;;12.27;100.00;95774.13;10545592;28;2643;-71
2022/10/16 04:01:57;;;;;;;;;;;13.20;99.90;;;12.34;100.00;95761.94;10554395;28;2708;-72
2022/10/16 04:07:00;;;;;;;;;;;13.30;99.90;;;12.36;100.00;95767.03;10570905;28;2631;-71
2022/10/16 04:12:09;;;;;;;;;;;13.30;99.90;;;12.40;100.00;95763.47;10550397;28;2556;-73
2022/10/16 04:17:13;;;;;;;;;;;13.40;99.90;;;12.51;100.00;95764.19;10547418;28;2566;-73
2022/10/16 04:22:16;;;;;;;;;;;13.40;99.90;;;12.54;100.00;95760.13;10545792;28;2553;-74
2022/10/16 04:27:19;;;;;;;;;;;13.50;99.90;;;12.56;100.00;95760.63;10530090;28;2675;-72
2022/10/16 04:32:22;;;;;;;;;;;13.50;99.90;;;12.57;100.00;95767.63;10552963;28;2551;-73
2022/10/16 04:37:26;;;;;;;;;;;13.60;99.90;;;12.57;100.00;95764.94;10553597;28;2685;-71
2022/10/16 04:42:31;;;;;;;;;;;13.60;99.90;;;12.61;100.00;95768.69;10559275;28;2612;-75
2022/10/16 04:47:37;;;;;;;;;;;13.60;99.90;;;12.66;100.00;95771.28;10548630;28;2528;-71
2022/10/16 04:52:46;;;;;;;;;;;13.60;99.90;;;12.67;100.00;95772.94;10552108;28;2050;-70
2022/10/16 04:57:52;;;;;;;;;;;13.60;99.90;;;12.74;100.00;95765.28;10571930;28;2817;-71
2022/10/16 05:02:59;;;;;;;;;;;13.70;99.90;;;12.74;100.00;95754.50;10573224;28;2754;-70
2022/10/16 05:08:04;;;;;;;;;;;13.70;99.90;;;12.78;100.00;95757.41;10576908;28;2650;-71
2022/10/16 05:13:07;;;;;;;;;;;13.70;99.90;;;12.67;100.00;95770.22;10555610;28;2635;-71
2022/10/16 05:18:11;;;;;;;;;;;13.70;99.90;;;12.70;100.00;95778.53;10552095;28;2858;-71
2022/10/16 05:23:14;;;;;;;;;;;13.70;99.90;;;12.67;100.00;95762.94;10547618;28;2874;-72
2022/10/16 05:28:17;;;;;;;;;;;13.70;99.90;;;12.62;100.00;95759.50;10555898;28;2970;-71
2022/10/16 05:33:21;;;;;;;;;;;13.60;99.90;;;12.60;100.00;95777.88;10543006;28;2868;-71
2022/10/16 05:38:24;;;;;;;;;;;13.60;99.90;;;12.64;100.00;95781.56;10527834;28;2827;-71
2022/10/16 05:43:29;;;;;;;;;;;13.60;99.90;;;12.66;100.00;95790.19;10548934;28;2881;-70
2022/10/16 05:48:32;;;;;;;;;;;13.60;99.90;;;12.62;100.00;95792.66;10543414;28;2287;-71
2022/10/16 05:53:35;;;;;;;;;;;13.60;99.90;;;12.66;100.00;95795.56;10554302;28;2287;-71
2022/10/16 05:58:40;;;;;;;;;;;13.60;99.90;;;12.60;100.00;95805.63;10549674;28;2320;-71
2022/10/16 06:03:44;;;;;;;;;;;13.60;99.90;;;12.45;100.00;95798.47;10543960;28;2285;-71
2022/10/16 06:08:48;;;;;;;;;;;13.60;99.90;;;12.38;100.00;95808.78;10551436;28;2929;-71
2022/10/16 06:13:51;;;;;;;;;;;13.50;99.90;;;12.40;100.00;95814.69;10541924;28;2870;-71
2022/10/16 06:18:56;;;;;;;;;;;13.50;99.90;;;12.34;100.00;95820.41;10551232;28;2280;-71
2022/10/16 06:24:00;;;;;;;;;;;13.50;99.90;;;12.28;100.00;95817.00;10540770;28;2883;-71
2022/10/16 06:29:03;;;;;;;;;;;13.40;99.90;;;12.26;100.00;95827.22;10537320;28;2950;-72
2022/10/16 06:34:10;;;;;;;;;;;13.40;99.90;;;12.34;100.00;95832.03;10537175;28;2846;-71
2022/10/16 06:39:13;;;;;;;;;;;13.40;99.90;;;12.33;100.00;95838.47;10543978;28;3005;-70
2022/10/16 06:44:17;;;;;;;;;;;13.40;99.90;;;12.38;100.00;95843.03;10545922;28;2911;-70
2022/10/16 06:49:22;;;;;;;;;;;13.40;99.90;;;12.39;100.00;95853.53;10548691;28;2412;-72
2022/10/16 06:54:25;;;;;;;;;;;13.40;99.90;;;12.50;100.00;95856.16;10546096;28;3137;-71
2022/10/16 06:59:29;;;;;;;;;;;13.40;99.90;;;12.49;100.00;95865.31;10550373;28;2332;-71
2022/10/16 07:04:32;;;;;;;;;;;13.50;99.90;;;12.53;100.00;95867.16;10545229;28;2286;-71
2022/10/16 07:09:35;;;;;;;;;;;13.50;99.90;;;12.65;100.00;95874.88;10541214;28;2917;-71
2022/10/16 07:14:38;;;;;;;;;;;13.50;99.90;;;12.73;100.00;95881.56;10550691;28;2859;-71
2022/10/16 07:19:42;;;;;;;;;;;13.70;99.90;;;12.86;100.00;95884.41;10549303;28;2950;-72
2022/10/16 07:24:45;;;;;;;;;;;13.70;99.90;;;12.87;100.00;95879.81;10546379;28;2342;-75
2022/10/16 07:29:54;;;;;;;;;;;13.80;99.90;;;12.90;100.00;95885.41;10543986;28;2830;-71
2022/10/16 07:34:57;;;;;;;;;;;13.90;99.90;;;13.08;100.00;95894.69;10560344;28;2290;-71
2022/10/16 07:40:00;;;;;;;;;;;14.00;99.90;;;13.21;100.00;95896.72;10554015;28;2878;-70
2022/10/16 07:45:03;;;;;;;;;;;14.10;99.90;;;13.37;100.00;95900.06;10546357;28;2835;-71
2022/10/16 07:50:06;;;;;;;;;;;14.20;99.90;;;13.47;100.00;95905.34;10548316;28;2313;-70
2022/10/16 07:55:10;;;;;;;;;;;14.30;99.90;;;13.78;100.00;95915.75;10550250;28;2907;-69
2022/10/16 08:00:13;;;;;;;;;;;14.50;99.90;;;13.84;100.00;95909.19;10539287;28;2915;-71
2022/10/16 08:05:17;;;;;;;;;;;14.70;99.90;;;14.24;100.00;95907.00;10555732;28;2928;-71
2022/10/16 08:10:21;;;;;;;;;;;14.90;99.90;;;14.70;100.00;95904.44;10544443;28;3000;-75
2022/10/16 08:15:24;;;;;;;;;;;15.30;99.90;;;15.21;100.00;95908.94;10546698;28;2897;-73
2022/10/16 08:20:28;;;;;;;;;;;15.60;99.90;;;15.47;100.00;95903.03;10549091;28;2971;-75
2022/10/16 08:25:31;;;;;;;;;;;16.00;99.90;;;15.91;100.00;95914.06;10555941;28;2414;-74
2022/10/16 08:30:35;;;;;;;;;;;16.40;99.90;;;16.20;100.00;95904.75;10560343;28;2222;-73
2022/10/16 08:35:39;;;;;;;;;;;16.70;99.90;;;16.51;100.00;95912.19;10553524;28;2971;-71
2022/10/16 08:40:44;;;;;;;;;;;17.00;99.90;;;16.89;100.00;95913.44;10546735;28;2883;-72
2022/10/16 08:45:53;;;;;;;;;;;17.40;99.90;;;17.08;100.00;95905.09;10554096;28;2936;-71
2022/10/16 08:50:56;;;;;;;;;;;17.60;99.90;;;17.31;100.00;95908.56;10566800;28;2387;-71
2022/10/16 08:55:59;;;;;;;;;;;17.90;99.90;;;17.58;100.00;95920.34;10561521;28;2879;-72
2022/10/16 09:01:05;;;;;;;;;;;18.00;99.90;;;17.74;100.00;95927.75;10561953;28;2985;-71
2022/10/16 09:06:10;;;;;;;;;;;;;;;17.96;100.00;95931.50;10559344;28;2973;-71
2022/10/16 09:11:14;;;;;;;;;;;18.50;99.90;;;18.11;100.00;95931.06;10557216;28;2330;-72
2022/10/16 09:16:17;;;;;;;;;;;18.70;99.90;;;18.29;100.00;95937.31;10558316;28;2963;-72
2022/10/16 09:21:21;;;;;;;;;;;18.90;99.90;;;18.53;100.00;95925.97;10555631;28;3220;-70
2022/10/16 09:26:24;;;;;;;;;;;19.00;99.90;;;18.77;100.00;95926.31;10562095;28;2834;-70
2022/10/16 09:31:27;;;;;;;;;;;19.20;99.90;;;18.87;100.00;95934.13;10553926;28;2834;-72
2022/10/16 09:36:29;;;;;;;;;;;19.40;99.90;;;18.99;100.00;95932.69;10548393;28;2894;-69
2022/10/16 09:41:32;;;;;;;;;;;19.50;99.90;;;18.97;100.00;95930.28;10545543;28;2911;-69
2022/10/16 09:46:35;;;;;;;;;;;19.50;99.90;;;19.45;96.33;95931.91;10546762;28;2921;-70
2022/10/16 09:51:40;;;;;;;;;;;19.80;99.90;;;19.64;91.24;95937.81;10554499;28;2896;-70
2022/10/16 09:56:45;;;;;;;;;;;20.00;99.90;;;19.68;92.40;95946.16;10545391;28;2910;-70
2022/10/16 10:01:48;;;;;;;;;;;20.20;99.90;;;19.83;88.73;95950.25;10555744;28;2328;-70
2022/10/16 10:06:55;;;;;;;;;;;;;;;20.10;87.81;95938.06;10563547;28;2317;-71
2022/10/16 10:12:01;;;;;;;;;;;;;;;20.05;87.59;95941.00;10560650;28;2900;-71
2022/10/16 10:17:09;;;;;;;;;;;20.80;99.90;;;20.15;87.11;95937.88;10547369;28;2954;-71
2022/10/16 10:22:12;;;;;;;;;;;20.80;99.90;;;20.36;87.58;95938.72;10562294;28;2915;-70
2022/10/16 10:27:15;;;;;;;;;;;20.90;99.90;;;20.49;82.86;95948.59;10570739;28;2979;-71
2022/10/16 10:32:19;;;;;;;;;;;20.90;99.90;;;20.54;82.27;95949.50;10563502;28;2392;-71
2022/10/16 10:37:22;;;;;;;;;;;21.00;99.90;;;20.63;80.39;95947.53;10549233;28;2900;-71
2022/10/16 10:42:25;;;;;;;;;;;21.10;99.90;;;20.82;77.12;95936.91;10550972;28;2899;-69
2022/10/16 10:47:29;;;;;;;;;;;;;;;21.09;71.69;95937.47;10558085;28;2855;-69
2022/10/16 10:52:34;;;;;;;;;;;;;;;21.34;66.57;95935.63;10558120;28;2958;-75
2022/10/16 10:57:37;;;;;;;;;;;;;;;21.39;64.68;95938.16;10549491;28;2902;-73
2022/10/16 11:02:42;;;;;;;;;;;;;;;21.52;61.49;95937.03;10543659;28;2385;-70
2022/10/16 11:07:45;;;;;;;;;;;;;;;21.49;60.07;95938.50;10545748;28;2297;-71
2022/10/16 11:12:49;;;;;;;;;;;;;;;21.47;59.15;95932.59;10563180;28;2356;-74
2022/10/16 11:17:53;;;;;;;;;;;;;;;21.67;57.37;95939.09;10547640;28;2880;-70
2022/10/16 11:22:58;;;;;;;;;;;;;;;21.71;58.54;95937.28;10554131;28;2874;-70
2022/10/16 11:28:02;;;;;;;;;;;;;;;21.50;57.12;95937.38;10557146;28;2298;-70
2022/10/16 11:33:06;;;;;;;;;;;;;;;21.62;57.03;95933.06;10550339;28;2405;-70
2022/10/16 11:38:13;;;;;;;;;;;;;;;21.58;57.68;95933.75;10543995;28;2956;-69
2022/10/16 11:43:17;;;;;;;;;;;;;;;21.72;54.03;95927.16;10541258;28;2353;-68
2022/10/16 11:48:20;;;;;;;;;;;;;;;21.95;50.75;95931.03;10541866;28;2902;-68
2022/10/16 11:53:24;;;;;;;;;;;;;;;22.06;50.69;95926.69;10536815;28;3010;-69
2022/10/16 11:58:27;;;;;;;;;;;;;;;22.37;48.10;95928.03;10548123;28;2458;-70
2022/10/16 12:03:31;;;;;;;;;;;;;;;22.36;48.16;95929.97;10545896;28;2361;-71
2022/10/16 12:08:35;;;;;;;;;;;;;;;22.18;50.97;95933.31;10542481;28;2744;-72
2022/10/16 12:13:38;;;;;;;;;;;;;;;21.94;57.56;95928.63;10539229;28;2972;-66
2022/10/16 12:18:42;;;;;;;;;;;;;;;21.73;60.16;95926.78;10551433;28;2994;-66
2022/10/16 12:23:46;;;;;;;;;;;;;;;21.80;57.95;95928.97;10540130;28;2275;-66
2022/10/16 12:28:51;;;;;;;;;;;;;;;21.89;59.46;95918.72;10561424;28;2384;-66
2022/10/16 12:33:54;;;;;;;;;;;;;;;21.99;59.57;95923.72;10552636;28;2915;-66
2022/10/16 12:38:58;;;;;;;;;;;;;;;22.01;60.68;95926.94;10551859;28;2898;-66
2022/10/16 12:44:01;;;;;;;;;;;;;;;22.21;59.27;95924.44;10556815;28;2903;-66
2022/10/16 12:49:08;;;;;;;;;;;;;;;22.15;60.58;95921.13;10559682;28;2452;-68
2022/10/16 12:54:11;;;;;;;;;;;;;;;22.00;63.76;95919.84;10558558;28;2908;-66
2022/10/16 12:59:15;;;;;;;;;;;;;;;22.00;59.25;95919.03;10552821;28;2840;-66
2022/10/16 13:04:26;;;;;;;;;;;;;;;22.05;60.72;95921.56;10551462;28;2843;-66
2022/10/16 13:09:29;;;;;;;;;;;;;;;22.04;56.86;95925.44;10558151;28;2291;-65
2022/10/16 13:14:33;;;;;;;;;;;;;;;21.98;53.80;95919.38;10549456;28;3202;-66
2022/10/16 13:19:39;;;;;;;;;;;;;;;21.99;53.43;95920.19;10553839;28;2277;-67
2022/10/16 13:24:44;;;;;;;;;;;;;;;22.11;53.93;95925.69;10524546;28;2342;-67
2022/10/16 13:29:48;;;;;;;;;;;;;;;21.91;55.08;95927.38;10557478;28;2816;-67
2022/10/16 13:34:53;;;;;;;;;;;;;;;21.77;56.68;95924.97;10560513;28;2930;-66
2022/10/16 13:39:58;;;;;;;;;;;;;;;21.81;54.99;95925.88;10555995;28;2917;-67
2022/10/16 13:45:03;;;;;;;;;;;;;;;21.89;54.82;95929.66;10552639;28;2871;-67
2022/10/16 13:50:07;;;;;;;;;;;;;;;21.99;52.82;95929.19;10563711;28;2343;-66
2022/10/16 13:55:10;;;;;;;;;;;;;;;21.82;53.74;95929.41;10559534;28;3021;-66
2022/10/16 14:00:13;;;;;;;;;;;;;;;21.83;51.18;95931.03;10553509;28;2898;-66
2022/10/16 14:05:17;;;;;;;;;;;;;;;22.06;51.21;95945.03;10551724;28;2312;-66
2022/10/16 14:10:20;;;;;;;;;;;;;;;22.09;48.06;95936.97;10559459;28;2886;-68
2022/10/16 14:15:24;;;;;;;;;;;;;;;22.25;48.24;95942.53;10557597;28;2331;-66
2022/10/16 14:20:31;;;;;;;;;;;;;;;22.25;47.21;95944.47;10549364;28;2324;-67
2022/10/16 14:25:35;;;;;;;;;;;;;;;22.13;46.61;95940.63;10565941;28;2327;-73
2022/10/16 14:30:41;;;;;;;;;;;;;;;22.16;47.69;95932.88;10546744;28;2892;-67
2022/10/16 14:35:44;;;;;;;;;;;;;;;21.90;48.48;95925.78;10560048;28;2910;-67
2022/10/16 14:40:48;;;;;;;;;;;;;;;21.93;49.40;95938.78;10556708;28;2292;-67
2022/10/16 14:45:52;;;;;;;;;;;;;;;21.90;48.72;95938.66;10562345;28;2394;-66
2022/10/16 14:50:55;;;;;;;;;;;;;;;21.78;50.13;95939.47;10551703;28;3059;-67
2022/10/16 14:56:00;;;;;;;;;;;;;;;21.81;48.97;95944.25;10559642;28;2886;-67
2022/10/16 15:01:06;;;;;;;;;;;;;;;21.79;50.93;95941.06;10541251;28;2957;-66
2022/10/16 15:06:09;;;;;;;;;;;22.80;99.90;;;21.80;50.61;95942.66;10553956;28;2943;-72
2022/10/16 15:11:12;;;;;;;;;;;22.50;99.90;;;21.67;54.40;95954.72;10555196;28;3309;-71
2022/10/16 15:16:21;;;;;;;;;;;22.50;99.90;;;21.47;57.41;95953.66;10550766;28;2863;-74
2022/10/16 15:21:24;;;;;;;;;;;22.20;99.90;;;21.42;59.59;95953.88;10549258;28;2992;-74
2022/10/16 15:26:29;;;;;;;;;;;22.20;99.90;;;21.28;62.68;95962.38;10554428;28;2832;-70
2022/10/16 15:31:33;;;;;;;;;;;22.20;99.90;;;21.15;65.20;95956.06;10547090;28;2997;-72
2022/10/16 15:36:36;;;;;;;;;;;22.00;99.90;;;21.04;67.33;95954.88;10546351;28;2271;-74
2022/10/16 15:41:39;;;;;;;;;;;22.00;99.90;;;20.91;69.36;95967.69;10548323;27;2884;-74
2022/10/16 15:46:43;;;;;;;;;;;21.90;99.90;;;20.75;71.53;95970.25;10546158;28;2930;-74
2022/10/16 15:51:47;;;;;;;;;;;21.70;99.90;;;20.46;74.67;95968.38;10548560;28;2449;-74
2022/10/16 15:56:50;;;;;;;;;;;21.40;99.90;;;20.33;76.38;95974.03;10547403;28;2316;-73
2022/10/16 16:01:54;;;;;;;;;;;21.30;99.90;;;20.08;79.32;95978.53;10544160;28;2930;-73
2022/10/16 16:06:57;;;;;;;;;;;21.00;99.90;;;19.98;80.53;95980.50;10548608;28;2848;-72
2022/10/16 16:12:00;;;;;;;;;;;20.80;99.90;;;19.87;82.06;95984.72;10541691;28;2910;-71
2022/10/16 16:17:03;;;;;;;;;;;20.80;99.90;;;19.57;85.78;95986.56;10551239;28;2891;-72
2022/10/16 16:22:07;;;;;;;;;;;20.60;99.90;;;19.45;87.54;95992.69;10546162;28;3031;-71
2022/10/16 16:27:15;;;;;;;;;;;;;;;19.17;91.68;95997.72;10543556;28;3062;-71
2022/10/16 16:32:19;;;;;;;;;;;;;;;19.04;93.60;95995.19;10533403;28;2344;-72
2022/10/16 16:37:22;;;;;;;;;;;;;;;18.81;96.55;96006.25;10560855;28;2334;-71
2022/10/16 16:42:26;;;;;;;;;;;;;;;18.68;98.00;96009.91;10555067;28;2899;-72
2022/10/16 16:47:30;;;;;;;;;;;;;;;18.63;99.70;96015.47;10570408;28;2401;-75
2022/10/16 16:52:33;;;;;;;;;;;;;;;18.34;100.00;96026.97;10546438;28;2350;-73
2022/10/16 16:57:38;;;;;;;;;;;19.20;99.90;;;18.26;100.00;96038.66;10543238;28;3001;-71
2022/10/16 17:02:43;;;;;;;;;;;19.20;99.90;;;18.11;100.00;96039.88;10530246;28;2325;-77
2022/10/16 17:07:46;;;;;;;;;;;19.00;99.90;;;17.87;100.00;96042.16;10545892;28;2226;-71
2022/10/16 17:12:50;;;;;;;;;;;18.90;99.90;;;17.68;100.00;96054.03;10533633;28;2976;-70
2022/10/16 17:17:55;;;;;;;;;;;;;;;17.55;100.00;96053.00;10544852;28;2892;-69
2022/10/16 17:22:59;;;;;;;;;;;18.50;99.90;;;17.54;100.00;96053.31;10545408;28;2851;-70
2022/10/16 17:28:02;;;;;;;;;;;18.50;99.90;;;17.47;100.00;96066.56;10538121;28;3004;-69
2022/10/16 17:33:04;;;;;;;;;;;18.50;99.90;;;17.45;100.00;96064.16;10554934;28;2268;-69
2022/10/16 17:38:07;;;;;;;;;;;18.40;99.90;;;17.38;100.00;96080.09;10543909;28;2329;-72
2022/10/16 17:43:11;;;;;;;;;;;18.50;99.90;;;17.23;100.00;96083.97;10547717;28;2957;-73
2022/10/16 17:48:14;;;;;;;;;;;18.30;99.90;;;17.22;100.00;96089.72;10560654;27;2908;-75
2022/10/16 17:53:18;;;;;;;;;;;18.30;99.90;;;17.36;100.00;96089.66;10565903;28;2854;-76
2022/10/16 17:58:21;;;;;;;;;;;18.30;99.90;;;17.22;100.00;96095.16;10558933;28;2249;-76
2022/10/16 18:03:26;;;;;;;;;;;18.30;99.90;;;17.25;100.00;96106.22;10551326;28;3063;-74
2022/10/16 18:08:35;;;;;;;;;;;18.20;99.90;;;17.08;100.00;96111.50;10559524;28;2946;-72
2022/10/16 18:13:40;;;;;;;;;;;18.20;99.90;;;17.01;100.00;96117.34;10545952;28;2336;-72
2022/10/16 18:18:43;;;;;;;;;;;18.10;99.90;;;16.91;100.00;96116.78;10551944;28;2912;-72
2022/10/16 18:23:46;;;;;;;;;;;18.00;99.90;;;17.08;100.00;96122.38;10545651;28;2881;-71
2022/10/16 18:28:54;;;;;;;;;;;17.90;99.90;;;17.16;100.00;96123.53;10544598;28;2973;-74
2022/10/16 18:33:58;;;;;;;;;;;18.00;99.90;;;17.15;100.00;96124.66;10546001;28;2280;-73
2022/10/16 18:39:02;;;;;;;;;;;18.10;99.90;;;17.12;100.00;96126.09;10557038;28;2960;-75
2022/10/16 18:44:05;;;;;;;;;;;18.00;99.90;;;17.11;100.00;96132.59;10549512;28;3221;-75
2022/10/16 18:49:09;;;;;;;;;;;18.10;99.90;;;17.10;100.00;96131.00;10546078;28;2255;-75
2022/10/16 18:54:11;;;;;;;;;;;18.00;99.90;;;17.10;100.00;96131.00;10551715;28;2340;-74
2022/10/16 18:59:14;;;;;;;;;;;18.10;99.90;;;17.10;100.00;96132.91;10549789;28;2978;-73
2022/10/16 19:04:17;;;;;;;;;;;18.10;99.90;;;16.96;100.00;96141.91;10553272;28;2824;-72
2022/10/16 19:09:29;;;;;;;;;;;18.00;99.90;;;16.87;100.00;96145.66;10552687;28;3041;-72
2022/10/16 19:14:33;;;;;;;;;;;17.90;99.90;;;16.86;100.00;96153.00;10553617;28;2910;-72
2022/10/16 19:19:37;;;;;;;;;;;17.90;99.90;;;16.83;100.00;96150.06;10541805;28;3054;-74
2022/10/16 19:24:40;;;;;;;;;;;17.80;99.90;;;16.49;100.00;96154.00;10555217;28;2843;-74
2022/10/16 19:29:44;;;;;;;;;;;17.70;99.90;;;16.52;100.00;96164.25;10552304;28;2890;-74
2022/10/16 19:34:48;;;;;;;;;;;17.50;99.90;;;16.29;100.00;96166.06;10560378;28;2907;-72
2022/10/16 19:39:51;;;;;;;;;;;17.40;99.90;;;16.40;100.00;96178.31;10555215;28;3564;-72
2022/10/16 19:44:55;;;;;;;;;;;17.30;99.90;;;16.40;100.00;96172.06;10557922;28;2914;-75
2022/10/16 19:49:58;;;;;;;;;;;17.40;99.90;;;16.32;100.00;96180.91;10540593;28;2846;-73
2022/10/16 19:55:10;;;;;;;;;;;17.30;99.90;;;16.26;100.00;96188.34;10534033;28;3030;-70
2022/10/16 20:00:14;;;;;;;;;;;17.30;99.90;;;16.24;100.00;96192.47;10546036;28;2296;-70
2022/10/16 20:05:16;;;;;;;;;;;17.20;99.90;;;16.32;100.00;96205.34;10541059;28;2886;-72
2022/10/16 20:10:19;;;;;;;;;;;17.20;99.90;;;16.24;100.00;96203.31;10545988;28;2390;-71
2022/10/16 20:15:22;;;;;;;;;;;17.20;99.90;;;16.13;100.00;96216.25;10542852;28;2409;-70
2022/10/16 20:20:25;;;;;;;;;;;17.20;99.90;;;16.09;100.00;96210.59;10538822;28;2940;-71
2022/10/16 20:25:28;;;;;;;;;;;17.10;99.90;;;16.08;100.00;96214.41;10533716;28;2830;-71
2022/10/16 20:30:32;;;;;;;;;;;17.10;99.90;;;16.10;100.00;96223.09;10552166;28;1984;-71
2022/10/16 20:35:34;;;;;;;;;;;17.10;99.90;;;15.74;100.00;96224.75;10550199;28;2008;-71
2022/10/16 20:40:38;;;;;;;;;;;17.00;99.90;;;15.17;100.00;96237.47;10549543;28;1992;-71
2022/10/16 20:45:41;;;;;;;;;;;16.50;99.90;;;14.82;100.00;96231.41;10541444;28;2047;-70
2022/10/16 20:50:44;;;;;;;;;;;16.20;99.90;;;14.55;100.00;96243.63;10558160;28;2167;-71
2022/10/16 20:55:47;;;;;;;;;;;15.80;99.90;;;14.34;100.00;96247.59;10561003;28;1990;-70
2022/10/16 21:00:50;;;;;;;;;;;15.60;99.90;;;14.29;100.00;96251.16;10559995;28;2080;-70
2022/10/16 21:05:53;;;;;;;;;;;15.50;99.90;;;14.14;100.00;96247.81;10565741;28;1963;-72
2022/10/16 21:11:00;;;;;;;;;;;15.40;99.90;;;13.99;100.00;96257.63;10574003;28;1862;-70
2022/10/16 21:16:06;;;;;;;;;;;15.20;99.90;;;13.95;100.00;96262.00;10565651;28;1815;-70
2022/10/16 21:21:09;;;;;;;;;;;15.20;99.90;;;13.95;100.00;96264.72;10564244;28;2031;-69
2022/10/16 21:26:12;;;;;;;;;;;15.10;99.90;;;13.95;100.00;96267.41;10561263;28;2059;-75
2022/10/16 21:31:17;;;;;;;;;;;15.10;99.90;;;13.82;100.00;96264.56;10546315;28;1960;-75
2022/10/16 21:36:20;;;;;;;;;;;15.00;99.90;;;13.66;100.00;96256.56;10556469;28;1973;-72
2022/10/16 21:41:23;;;;;;;;;;;14.90;99.90;;;13.63;100.00;96264.44;10554223;28;1990;-71
2022/10/16 21:46:27;;;;;;;;;;;14.80;99.90;;;13.58;100.00;96267.16;10559018;28;2048;-70
2022/10/16 21:51:31;;;;;;;;;;;14.80;99.90;;;13.66;100.00;96266.56;10546502;28;1936;-71
2022/10/16 21:56:36;;;;;;;;;;;14.80;99.90;;;13.67;100.00;96262.75;10551115;28;2000;-70
2022/10/16 22:01:39;;;;;;;;;;;14.80;99.90;;;13.66;100.00;96267.34;10546479;28;2052;-70
2022/10/16 22:06:42;;;;;;;;;;;14.80;99.90;;;13.61;100.00;96267.38;10558240;28;1921;-71
2022/10/16 22:11:45;;;;;;;;;;;14.80;99.90;;;13.52;100.00;96263.69;10549479;28;2053;-70
2022/10/16 22:16:48;;;;;;;;;;;14.70;99.90;;;13.42;100.00;96269.97;10545647;28;1966;-71
2022/10/16 22:21:54;;;;;;;;;;;14.60;99.90;;;13.23;100.00;96268.97;10553168;28;2040;-70
2022/10/16 22:26:58;;;;;;;;;;;14.50;99.90;;;13.10;100.00;96266.84;10551587;28;2171;-74
2022/10/16 22:32:01;;;;;;;;;;;14.30;99.90;;;12.97;100.00;96274.44;10547892;28;2072;-71
2022/10/16 22:37:04;;;;;;;;;;;14.20;99.90;;;12.97;100.00;96271.75;10562412;28;2072;-71
2022/10/16 22:42:08;;;;;;;;;;;14.10;99.90;;;12.92;100.00;96277.19;10550822;28;3206;-71
2022/10/16 22:47:11;;;;;;;;;;;14.10;99.90;;;12.86;100.00;96272.91;10552834;28;1981;-70
2022/10/16 22:52:14;;;;;;;;;;;14.10;99.90;;;12.89;100.00;96277.72;10548318;28;1918;-69
2022/10/16 22:57:17;;;;;;;;;;;14.00;99.90;;;12.87;100.00;96279.91;10548416;28;1940;-70
2022/10/16 23:02:20;;;;;;;;;;;14.00;99.90;;;12.75;100.00;96282.09;10556140;27;2165;-70
2022/10/16 23:07:23;;;;;;;;;;;13.90;99.90;;;12.68;100.00;96282.38;10546058;28;1993;-72
2022/10/16 23:12:37;;;;;;;;;;;13.80;99.90;;;12.70;100.00;96274.81;10556902;28;2032;-73
2022/10/16 23:17:41;;;;;;;;;;;13.80;99.90;;;12.60;100.00;96274.88;10546304;28;2021;-72
2022/10/16 23:22:44;;;;;;;;;;;13.80;99.90;;;12.65;100.00;96272.13;10550949;28;2016;-70
2022/10/16 23:27:46;;;;;;;;;;;13.70;99.90;;;12.57;100.00;96280.00;10550741;27;2115;-71
2022/10/16 23:32:50;;;;;;;;;;;13.70;99.90;;;12.52;100.00;96288.88;10557034;28;2111;-73
2022/10/16 23:37:53;;;;;;;;;;;13.70;99.90;;;12.55;100.00;96282.16;10530569;28;2113;-73
2022/10/16 23:42:55;;;;;;;;;;;13.70;99.90;;;12.44;100.00;96292.16;10554252;28;1963;-73